createdAt,value
2017-10-27T00:01:45.376Z,20.33
2017-10-27T00:04:12.940Z,20.80
2017-10-27T00:06:40.514Z,21.37
2017-10-27T00:09:08.876Z,19.90
2017-10-27T00:11:37.680Z,21.30
2017-10-27T00:14:05.457Z,19.90
2017-10-27T00:16:33.028Z,20.27
2017-10-27T00:19:01.366Z,19.43
2017-10-27T00:21:28.965Z,19.55
2017-10-27T00:23:58.880Z,19.50
2017-10-27T00:26:27.236Z,19.00
2017-10-27T00:28:54.804Z,19.67
2017-10-27T00:31:22.401Z,19.47
2017-10-27T00:33:49.974Z,18.57
2017-10-27T00:36:17.587Z,17.30
2017-10-27T00:38:45.161Z,17.63
2017-10-27T00:41:13.523Z,17.90
2017-10-27T00:43:41.852Z,19.33
2017-10-27T00:46:09.473Z,19.80
2017-10-27T00:48:37.040Z,19.37
2017-10-27T00:51:04.697Z,19.20
2017-10-27T00:53:32.281Z,21.60
2017-10-27T00:56:00.753Z,19.77
2017-10-27T00:58:29.096Z,22.93
2017-10-27T01:00:58.700Z,17.95
2017-10-27T01:03:26.388Z,17.83
2017-10-27T01:05:53.960Z,13.53
2017-10-27T01:08:22.321Z,12.77
2017-10-27T01:10:51.790Z,11.57
2017-10-27T01:13:19.763Z,10.93
2017-10-27T01:15:49.164Z,10.90
2017-10-27T01:18:17.133Z,10.65
2017-10-27T01:20:45.001Z,11.35
2017-10-27T01:23:12.870Z,9.20
2017-10-27T01:25:40.474Z,8.13
2017-10-27T01:28:08.064Z,9.27
2017-10-27T01:30:35.629Z,9.73
2017-10-27T01:33:03.225Z,7.97
2017-10-27T01:35:30.792Z,7.60
2017-10-27T01:37:59.952Z,7.03
2017-10-27T01:40:27.524Z,7.97
2017-10-27T01:42:55.149Z,5.73
2017-10-27T01:45:23.512Z,6.07
2017-10-27T01:47:51.134Z,6.47
2017-10-27T01:50:18.721Z,4.23
2017-10-27T01:52:46.285Z,3.93
2017-10-27T01:55:13.876Z,3.10
2017-10-27T01:57:42.208Z,3.53
2017-10-27T02:00:09.813Z,3.62
2017-10-27T02:02:38.209Z,3.20
2017-10-27T02:05:05.810Z,2.17
2017-10-27T02:07:33.368Z,2.87
2017-10-27T02:10:00.993Z,3.10
2017-10-27T02:12:28.571Z,2.20
2017-10-27T02:14:57.100Z,2.50
2017-10-27T02:17:24.949Z,1.97
2017-10-27T02:19:52.508Z,2.67
2017-10-27T02:22:20.094Z,2.43
2017-10-27T02:24:47.656Z,2.10
2017-10-27T02:27:15.244Z,1.90
2017-10-27T02:29:42.813Z,2.23
2017-10-27T02:32:10.403Z,2.00
2017-10-27T02:34:37.963Z,2.30
2017-10-27T02:37:05.840Z,2.20
2017-10-27T02:39:33.404Z,2.10
2017-10-27T02:42:00.964Z,1.73
2017-10-27T02:44:28.548Z,2.07
2017-10-27T02:46:57.795Z,1.93
2017-10-27T02:49:25.380Z,1.90
2017-10-27T02:51:52.941Z,1.73
2017-10-27T02:54:20.582Z,2.23
2017-10-27T02:56:48.147Z,1.60
2017-10-27T02:59:15.733Z,1.70
2017-10-27T03:01:43.296Z,2.10
2017-10-27T03:04:10.880Z,1.85
2017-10-27T03:06:39.209Z,1.67
2017-10-27T03:09:06.807Z,1.70
2017-10-27T03:11:35.132Z,2.13
2017-10-27T03:14:02.722Z,1.90
2017-10-27T03:16:30.281Z,2.00
2017-10-27T03:18:59.201Z,2.47
2017-10-27T03:21:26.859Z,2.03
2017-10-27T03:23:54.529Z,1.87
2017-10-27T03:26:22.900Z,2.23
2017-10-27T03:28:50.741Z,2.77
2017-10-27T03:31:18.299Z,2.10
2017-10-27T03:33:45.858Z,1.80
2017-10-27T03:36:13.444Z,2.20
2017-10-27T03:38:41.000Z,1.93
2017-10-27T03:41:08.584Z,1.43
2017-10-27T03:43:36.244Z,2.00
2017-10-27T03:46:03.833Z,1.90
2017-10-27T03:48:31.457Z,2.00
2017-10-27T03:50:59.717Z,1.60
2017-10-27T03:53:27.272Z,1.87
2017-10-27T03:55:55.061Z,1.90
2017-10-27T03:58:22.621Z,2.37
2017-10-27T04:00:50.185Z,1.80
2017-10-27T04:03:17.776Z,1.87
2017-10-27T04:05:45.336Z,1.50
2017-10-27T04:08:12.923Z,1.90
2017-10-27T04:10:40.528Z,1.97
2017-10-27T04:13:08.289Z,1.95
2017-10-27T04:15:35.851Z,2.93
2017-10-27T04:18:03.409Z,2.20
2017-10-27T04:20:30.992Z,1.83
2017-10-27T04:22:59.756Z,1.90
2017-10-27T04:25:27.352Z,2.33
2017-10-27T04:27:54.928Z,2.00
2017-10-27T04:30:22.540Z,4.50
2017-10-27T04:32:50.096Z,1.80
2017-10-27T04:35:17.776Z,1.57
2017-10-27T04:37:46.101Z,1.40
2017-10-27T04:40:13.656Z,1.57
2017-10-27T04:42:41.240Z,1.50
2017-10-27T04:45:08.813Z,2.22
2017-10-27T04:47:36.394Z,2.30
2017-10-27T04:50:04.011Z,2.47
2017-10-27T04:52:31.608Z,2.73
2017-10-27T04:55:00.084Z,3.60
2017-10-27T04:57:27.941Z,4.70
2017-10-27T04:59:55.500Z,4.83
2017-10-27T05:02:23.085Z,3.83
2017-10-27T05:04:50.644Z,2.20
2017-10-27T05:07:18.228Z,1.73
2017-10-27T05:09:46.048Z,1.80
2017-10-27T05:12:14.557Z,1.83
2017-10-27T05:14:42.879Z,1.27
2017-10-27T05:17:16.589Z,1.50
2017-10-27T05:19:49.776Z,1.57
2017-10-27T05:22:23.141Z,1.87
2017-10-27T05:24:51.460Z,1.83
2017-10-27T05:27:19.049Z,1.73
2017-10-27T05:29:46.609Z,1.53
2017-10-27T05:32:14.212Z,1.23
2017-10-27T05:34:42.541Z,1.30
2017-10-27T05:37:10.120Z,1.60
2017-10-27T05:39:37.700Z,1.50
2017-10-27T05:42:06.028Z,1.48
2017-10-27T05:44:33.609Z,1.60
2017-10-27T05:47:01.177Z,0.90
2017-10-27T05:49:28.777Z,1.80
2017-10-27T05:51:57.271Z,1.20
2017-10-27T05:54:24.898Z,1.00
2017-10-27T05:56:52.614Z,1.50
2017-10-27T05:59:20.884Z,1.53
2017-10-27T06:01:48.449Z,1.80
2017-10-27T06:04:16.010Z,1.80
2017-10-27T06:06:43.896Z,1.50
2017-10-27T06:09:11.477Z,1.60
2017-10-27T06:11:39.065Z,2.83
2017-10-27T06:14:07.396Z,2.27
2017-10-27T06:16:35.084Z,2.33
2017-10-27T06:19:02.656Z,1.90
2017-10-27T06:21:31.007Z,1.73
2017-10-27T06:23:59.936Z,1.30
2017-10-27T06:26:28.289Z,1.27
2017-10-27T06:28:58.272Z,1.20
2017-10-27T06:31:25.863Z,1.30
2017-10-27T06:33:53.532Z,1.20
2017-10-27T06:36:21.111Z,1.53
2017-10-27T06:38:49.435Z,1.50
2017-10-27T06:41:17.020Z,1.03
2017-10-27T06:43:44.584Z,1.53
2017-10-27T06:46:12.218Z,1.60
2017-10-27T06:48:39.778Z,1.53
2017-10-27T06:51:07.360Z,1.73
2017-10-27T06:53:34.915Z,1.50
2017-10-27T06:56:02.500Z,1.47
2017-10-27T06:58:30.061Z,1.57
2017-10-27T07:00:58.957Z,1.62
2017-10-27T07:03:28.045Z,1.60
2017-10-27T07:05:57.288Z,1.93
2017-10-27T07:08:24.929Z,1.30
2017-10-27T07:10:53.252Z,1.43
2017-10-27T07:13:20.949Z,1.20
2017-10-27T07:15:48.508Z,2.60
2017-10-27T07:18:16.091Z,1.90
2017-10-27T07:20:44.449Z,1.80
2017-10-27T07:23:12.040Z,1.30
2017-10-27T07:25:40.369Z,1.43
2017-10-27T07:28:08.152Z,2.60
2017-10-27T07:30:35.716Z,2.53
2017-10-27T07:33:03.292Z,2.03
2017-10-27T07:35:31.647Z,2.30
2017-10-27T07:38:00.822Z,2.58
2017-10-27T07:40:28.413Z,3.90
2017-10-27T07:42:56.905Z,2.03
2017-10-27T07:45:24.493Z,2.93
2017-10-27T07:47:52.091Z,3.10
2017-10-27T07:50:19.681Z,2.67
2017-10-27T07:52:48.118Z,2.10
2017-10-27T07:55:15.705Z,2.20
2017-10-27T07:57:43.268Z,3.00
2017-10-27T08:00:10.859Z,2.00
2017-10-27T08:02:39.224Z,3.63
2017-10-27T08:05:06.895Z,1.70
2017-10-27T08:07:35.260Z,2.80
2017-10-27T08:10:03.659Z,2.50
2017-10-27T08:12:32.000Z,1.95
2017-10-27T08:15:00.912Z,2.30
2017-10-27T08:17:28.576Z,4.33
2017-10-27T08:19:57.161Z,2.70
2017-10-27T08:22:24.723Z,2.20
2017-10-27T08:24:52.286Z,2.33
2017-10-27T08:27:21.394Z,1.83
2017-10-27T08:29:49.904Z,1.90
2017-10-27T08:32:17.477Z,1.60
2017-10-27T08:34:45.054Z,1.87
2017-10-27T08:37:12.655Z,1.98
2017-10-27T08:39:40.996Z,1.12
2017-10-27T08:42:08.669Z,3.43
2017-10-27T08:44:36.248Z,1.90
2017-10-27T08:47:03.841Z,2.10
2017-10-27T08:49:31.469Z,2.93
2017-10-27T08:51:59.810Z,4.37
2017-10-27T08:54:27.376Z,2.30
2017-10-27T08:56:54.940Z,2.28
2017-10-27T08:59:22.528Z,3.30
2017-10-27T09:01:50.095Z,2.90
2017-10-27T09:04:18.273Z,4.30
2017-10-27T09:06:45.846Z,6.10
2017-10-27T09:09:14.211Z,6.60
2017-10-27T09:11:42.555Z,5.83
2017-10-27T09:14:10.149Z,3.50
2017-10-27T09:16:37.805Z,1.63
2017-10-27T09:19:05.472Z,2.50
2017-10-27T09:21:33.041Z,2.53
2017-10-27T09:24:00.632Z,1.70
2017-10-27T09:26:28.191Z,1.73
2017-10-27T09:28:55.776Z,2.37
2017-10-27T09:31:23.335Z,2.30
2017-10-27T09:33:50.929Z,2.43
2017-10-27T09:36:18.497Z,2.67
2017-10-27T09:38:46.121Z,3.17
2017-10-27T09:41:13.685Z,1.60
2017-10-27T09:43:41.253Z,1.87
2017-10-27T09:46:08.840Z,2.35
2017-10-27T09:48:36.495Z,2.87
2017-10-27T09:51:04.261Z,1.90
2017-10-27T09:53:31.824Z,2.00
2017-10-27T09:56:00.580Z,1.40
2017-10-27T09:58:28.276Z,3.03
2017-10-27T10:00:55.835Z,2.30
2017-10-27T10:03:23.421Z,1.60
2017-10-27T10:05:51.751Z,1.47
2017-10-27T10:08:19.340Z,1.80
2017-10-27T10:10:46.900Z,2.30
2017-10-27T10:13:15.520Z,2.17
2017-10-27T10:15:43.088Z,3.00
2017-10-27T10:18:10.648Z,1.70
2017-10-27T10:20:38.268Z,1.97
2017-10-27T10:23:05.837Z,2.20
2017-10-27T10:25:34.209Z,1.77
2017-10-27T10:28:01.771Z,2.30
2017-10-27T10:30:29.360Z,1.63
2017-10-27T10:32:57.205Z,4.40
2017-10-27T10:35:25.570Z,1.87
2017-10-27T10:37:53.904Z,2.10
2017-10-27T10:40:21.484Z,2.83
2017-10-27T10:42:49.043Z,3.30
2017-10-27T10:45:16.798Z,2.90
2017-10-27T10:47:44.400Z,3.70
2017-10-27T10:50:11.960Z,2.27
2017-10-27T10:52:39.547Z,2.60
2017-10-27T10:55:07.876Z,3.53
2017-10-27T10:57:35.460Z,2.67
2017-10-27T11:00:04.528Z,1.85
2017-10-27T11:02:32.141Z,2.30
2017-10-27T11:04:59.887Z,2.90
2017-10-27T11:07:27.448Z,3.33
2017-10-27T11:09:55.033Z,2.63
2017-10-27T11:12:23.364Z,3.30
2017-10-27T11:14:50.948Z,4.97
2017-10-27T11:17:18.516Z,2.20
2017-10-27T11:19:46.868Z,2.30
2017-10-27T11:22:14.436Z,3.20
2017-10-27T11:24:42.232Z,1.30
2017-10-27T11:27:10.569Z,1.87
2017-10-27T11:29:38.134Z,2.97
2017-10-27T11:32:05.736Z,5.40
2017-10-27T11:34:34.084Z,1.50
2017-10-27T11:37:01.645Z,1.37
2017-10-27T11:39:29.236Z,2.50
2017-10-27T11:41:57.904Z,1.58
2017-10-27T11:44:27.015Z,2.03
2017-10-27T11:46:55.356Z,1.40
2017-10-27T11:49:23.721Z,1.67
2017-10-27T11:51:51.312Z,1.80
2017-10-27T11:54:18.905Z,1.80
2017-10-27T11:56:46.477Z,1.53
2017-10-27T11:59:14.400Z,1.23
2017-10-27T12:01:41.964Z,2.73
2017-10-27T12:04:09.524Z,2.30
2017-10-27T12:06:38.860Z,2.20
2017-10-27T12:09:06.776Z,1.93
2017-10-27T12:11:34.344Z,1.17
2017-10-27T12:14:01.936Z,3.12
2017-10-27T12:16:30.495Z,2.20
2017-10-27T12:19:00.584Z,1.63
2017-10-27T12:21:28.145Z,1.90
2017-10-27T12:23:55.728Z,1.13
2017-10-27T12:26:23.312Z,1.90
2017-10-27T12:28:51.653Z,1.80
2017-10-27T12:31:19.249Z,1.83
2017-10-27T12:33:46.816Z,1.70
2017-10-27T12:36:15.197Z,1.50
2017-10-27T12:38:43.557Z,1.47
2017-10-27T12:41:12.629Z,2.55
2017-10-27T12:43:40.216Z,1.77
2017-10-27T12:46:07.780Z,2.30
2017-10-27T12:48:35.437Z,1.80
2017-10-27T12:51:03.013Z,2.12
2017-10-27T12:53:31.372Z,2.00
2017-10-27T12:56:00.656Z,4.93
2017-10-27T12:58:28.248Z,10.13
2017-10-27T13:00:55.812Z,5.77
2017-10-27T13:03:23.408Z,6.97
2017-10-27T13:05:51.024Z,2.43
2017-10-27T13:08:19.374Z,5.27
2017-10-27T13:10:46.936Z,4.60
2017-10-27T13:13:14.560Z,3.05
2017-10-27T13:15:42.164Z,6.90
2017-10-27T13:18:09.741Z,13.97
2017-10-27T13:20:37.336Z,2.20
2017-10-27T13:23:05.664Z,1.55
2017-10-27T13:25:33.252Z,2.20
2017-10-27T13:28:00.825Z,2.40
2017-10-27T13:30:29.676Z,2.67
2017-10-27T13:32:59.016Z,0.95
2017-10-27T13:35:27.384Z,1.60
2017-10-27T13:37:54.979Z,2.93
2017-10-27T13:40:22.539Z,2.30
2017-10-27T13:42:50.164Z,3.87
2017-10-27T13:45:17.728Z,3.17
2017-10-27T13:47:45.316Z,6.17
2017-10-27T13:50:12.892Z,2.40
2017-10-27T13:52:40.671Z,1.67
2017-10-27T13:55:08.239Z,1.23
2017-10-27T13:57:35.901Z,1.27
2017-10-27T14:00:03.563Z,1.23
2017-10-27T14:02:31.144Z,1.57
2017-10-27T14:05:00.248Z,1.10
2017-10-27T14:07:28.016Z,1.10
2017-10-27T14:09:55.584Z,1.37
2017-10-27T14:12:23.968Z,1.40
2017-10-27T14:14:52.335Z,1.00
2017-10-27T14:17:20.076Z,1.03
2017-10-27T14:19:47.645Z,1.07
2017-10-27T14:22:15.212Z,1.30
2017-10-27T14:24:42.800Z,2.07
2017-10-27T14:27:11.176Z,2.72
2017-10-27T14:29:39.545Z,2.20
2017-10-27T14:32:08.616Z,1.50
2017-10-27T14:34:36.484Z,2.10
2017-10-27T14:37:04.048Z,2.00
2017-10-27T14:39:31.628Z,1.30
2017-10-27T14:41:59.705Z,2.63
2017-10-27T14:44:27.464Z,1.57
2017-10-27T14:46:55.024Z,1.70
2017-10-27T14:49:22.582Z,1.50
2017-10-27T14:51:51.671Z,1.80
2017-10-27T14:54:19.228Z,1.90
2017-10-27T14:56:46.808Z,1.80
2017-10-27T14:59:14.381Z,1.92
2017-10-27T15:01:42.733Z,1.00
2017-10-27T15:04:10.316Z,1.45
2017-10-27T15:06:38.673Z,1.30
2017-10-27T15:09:06.237Z,1.33
2017-10-27T15:11:34.005Z,1.10
2017-10-27T15:14:02.341Z,0.90
2017-10-27T15:16:29.909Z,1.02
2017-10-27T15:18:58.054Z,3.92
2017-10-27T15:21:25.607Z,1.10
2017-10-27T15:23:53.961Z,1.17
2017-10-27T15:26:22.305Z,1.00
2017-10-27T15:28:49.912Z,1.60
2017-10-27T15:31:18.246Z,1.85
2017-10-27T15:33:45.816Z,1.70
2017-10-27T15:36:13.408Z,1.20
2017-10-27T15:38:41.733Z,1.13
2017-10-27T15:41:09.312Z,1.00
2017-10-27T15:43:36.876Z,1.03
2017-10-27T15:46:04.462Z,1.00
2017-10-27T15:48:32.788Z,1.43
2017-10-27T15:51:01.293Z,1.20
2017-10-27T15:53:28.852Z,1.00
2017-10-27T15:55:56.437Z,1.53
2017-10-27T15:58:24.100Z,1.60
2017-10-27T16:00:51.685Z,1.10
2017-10-27T16:03:20.012Z,1.77
2017-10-27T16:05:47.571Z,1.30
2017-10-27T16:08:15.164Z,1.80
2017-10-27T16:10:42.723Z,1.77
2017-10-27T16:13:10.310Z,2.03
2017-10-27T16:15:38.632Z,2.07
2017-10-27T16:18:06.216Z,1.67
2017-10-27T16:20:33.776Z,2.30
2017-10-27T16:23:02.881Z,1.33
2017-10-27T16:25:30.444Z,2.27
2017-10-27T16:27:58.204Z,2.37
2017-10-27T16:30:25.766Z,5.60
2017-10-27T16:32:53.323Z,1.80
2017-10-27T16:35:20.912Z,2.15
2017-10-27T16:37:49.236Z,1.87
2017-10-27T16:40:16.824Z,2.10
2017-10-27T16:42:44.383Z,1.93
2017-10-27T16:45:11.964Z,1.53
2017-10-27T16:50:14.311Z,1.67
2017-10-27T16:52:41.868Z,1.63
2017-10-27T16:55:09.451Z,1.70
2017-10-27T16:57:37.008Z,1.63
2017-10-27T17:00:04.608Z,2.63
2017-10-27T17:02:32.936Z,1.50
2017-10-27T17:05:02.768Z,1.77
2017-10-27T17:07:30.333Z,1.87
2017-10-27T17:09:57.922Z,3.53
2017-10-27T17:12:26.273Z,1.87
2017-10-27T17:14:55.401Z,2.27
2017-10-27T17:17:23.816Z,2.17
2017-10-27T17:19:51.416Z,1.43
2017-10-27T17:22:19.784Z,2.10
2017-10-27T17:24:47.484Z,3.20
2017-10-27T17:27:15.883Z,5.47
2017-10-27T17:29:43.456Z,9.83
2017-10-27T17:32:11.060Z,6.00
2017-10-27T17:34:38.623Z,5.87
2017-10-27T17:37:06.280Z,8.00
2017-10-27T17:39:33.843Z,9.93
2017-10-27T17:42:02.841Z,3.40
2017-10-27T17:44:30.407Z,9.70
2017-10-27T17:46:58.776Z,2.70
2017-10-27T17:49:27.142Z,3.20
2017-10-27T17:51:54.704Z,2.30
2017-10-27T17:54:22.297Z,2.70
2017-10-27T17:56:50.623Z,1.60
2017-10-27T17:59:18.253Z,1.40
2017-10-27T18:01:46.043Z,1.73
2017-10-27T18:04:13.705Z,1.90
2017-10-27T18:06:41.269Z,2.00
2017-10-27T18:09:08.851Z,1.43
2017-10-27T18:11:36.412Z,1.43
2017-10-27T18:14:03.996Z,1.43
2017-10-27T18:16:31.556Z,1.50
2017-10-27T18:19:00.056Z,1.77
2017-10-27T18:21:27.623Z,1.20
2017-10-27T18:23:55.216Z,1.50
2017-10-27T18:26:22.811Z,1.60
2017-10-27T18:28:50.467Z,2.20
2017-10-27T18:31:18.056Z,2.70
2017-10-27T18:33:46.380Z,2.50
2017-10-27T18:36:14.186Z,2.90
2017-10-27T18:38:42.325Z,2.60
2017-10-27T18:41:09.884Z,2.78
2017-10-27T18:43:37.470Z,3.07
2017-10-27T18:46:05.036Z,2.60
2017-10-27T18:48:32.615Z,3.00
2017-10-27T18:51:01.897Z,2.92
2017-10-27T18:53:29.557Z,2.63
2017-10-27T18:55:58.221Z,2.50
2017-10-27T18:58:25.803Z,2.47
2017-10-27T19:00:53.364Z,2.37
2017-10-27T19:03:20.946Z,1.70
2017-10-27T19:05:49.273Z,2.10
2017-10-27T19:08:17.064Z,1.58
2017-10-27T19:10:44.624Z,1.45
2017-10-27T19:13:12.952Z,1.65
2017-10-27T19:15:40.532Z,1.57
2017-10-27T19:18:08.129Z,1.60
2017-10-27T19:20:36.133Z,5.37
2017-10-27T19:23:03.700Z,13.15
2017-10-27T19:25:31.262Z,2.47
2017-10-27T19:27:59.769Z,2.27
2017-10-27T19:30:27.332Z,2.37
2017-10-27T19:32:54.916Z,2.70
2017-10-27T19:35:22.481Z,3.03
2017-10-27T19:37:50.072Z,3.17
2017-10-27T19:40:18.396Z,1.70
2017-10-27T19:42:45.981Z,2.23
2017-10-27T19:45:13.540Z,3.12
2017-10-27T19:47:41.125Z,3.10
2017-10-27T19:50:09.452Z,2.37
2017-10-27T19:52:37.036Z,2.77
2017-10-27T19:55:04.600Z,2.70
2017-10-27T19:57:32.180Z,2.80
2017-10-27T20:00:00.859Z,2.67
2017-10-27T20:02:28.612Z,2.70
2017-10-27T20:04:56.171Z,3.10
2017-10-27T20:07:25.248Z,2.70
2017-10-27T20:09:52.836Z,2.87
2017-10-27T20:12:20.413Z,1.80
2017-10-27T20:14:48.766Z,1.87
2017-10-27T20:17:17.837Z,2.40
2017-10-27T20:19:46.184Z,3.10
2017-10-27T20:22:13.808Z,2.93
2017-10-27T20:24:42.992Z,3.70
2017-10-27T20:27:10.552Z,2.50
2017-10-27T20:29:38.140Z,2.25
2017-10-27T20:32:06.465Z,2.80
2017-10-27T20:34:34.079Z,2.73
2017-10-27T20:37:02.752Z,2.40
2017-10-27T20:39:30.332Z,4.77
2017-10-27T20:41:58.668Z,3.00
2017-10-27T20:44:26.653Z,2.67
2017-10-27T20:46:54.366Z,2.33
2017-10-27T20:49:22.191Z,2.13
2017-10-27T20:51:49.956Z,2.10
2017-10-27T20:54:19.345Z,2.42
2017-10-27T20:56:46.902Z,1.93
2017-10-27T20:59:14.489Z,2.72
2017-10-27T21:01:42.052Z,2.77
2017-10-27T21:04:09.737Z,1.80
2017-10-27T21:06:38.064Z,1.73
2017-10-27T21:09:05.643Z,1.50
2017-10-27T21:11:33.964Z,2.13
2017-10-27T21:14:02.739Z,2.27
2017-10-27T21:16:31.104Z,2.17
2017-10-27T21:19:00.456Z,1.63
2017-10-27T21:21:28.017Z,2.17
2017-10-27T21:23:55.600Z,1.73
2017-10-27T21:26:23.165Z,2.90
2017-10-27T21:28:50.931Z,2.30
2017-10-27T21:31:18.496Z,2.90
2017-10-27T21:33:46.055Z,2.30
2017-10-27T21:36:13.639Z,3.00
2017-10-27T21:38:42.064Z,3.10
2017-10-27T21:41:09.653Z,2.37
2017-10-27T21:43:37.228Z,3.50
2017-10-27T21:46:04.818Z,3.00
2017-10-27T21:48:32.388Z,3.20
2017-10-27T21:51:00.960Z,2.80
2017-10-27T21:53:29.304Z,4.20
2017-10-27T21:55:56.936Z,3.10
2017-10-27T21:58:24.501Z,3.03
2017-10-27T22:00:54.240Z,2.63
2017-10-27T22:03:21.800Z,2.60
2017-10-27T22:05:49.362Z,3.27
2017-10-27T22:08:16.948Z,2.50
2017-10-27T22:10:45.284Z,2.93
2017-10-27T22:13:12.865Z,2.60
2017-10-27T22:15:40.425Z,3.00
2017-10-27T22:18:08.085Z,1.70
2017-10-27T22:20:35.648Z,2.60
2017-10-27T22:23:05.084Z,2.03
2017-10-27T22:25:32.652Z,2.30
2017-10-27T22:28:01.908Z,2.00
2017-10-27T22:30:29.572Z,1.60
2017-10-27T22:32:57.920Z,1.70
2017-10-27T22:35:25.485Z,2.17
2017-10-27T22:37:53.277Z,1.63
2017-10-27T22:40:20.940Z,1.53
2017-10-27T22:42:48.505Z,1.70
2017-10-27T22:45:16.087Z,1.43
2017-10-27T22:47:44.413Z,2.00
2017-10-27T22:50:11.996Z,1.80
2017-10-27T22:52:40.325Z,2.03
2017-10-27T22:55:07.908Z,2.50
2017-10-27T22:57:35.468Z,2.13
2017-10-27T23:00:03.052Z,2.30
2017-10-27T23:02:30.613Z,1.87
2017-10-27T23:04:58.204Z,1.40
2017-10-27T23:07:32.240Z,1.60
2017-10-27T23:10:00.864Z,1.77
2017-10-27T23:12:28.456Z,1.70
2017-10-27T23:14:56.808Z,2.03
2017-10-27T23:17:24.367Z,1.33
2017-10-27T23:19:52.280Z,1.90
2017-10-27T23:22:19.909Z,1.70
2017-10-27T23:24:47.488Z,1.53
2017-10-27T23:27:15.812Z,1.53
2017-10-27T23:29:43.391Z,1.53
2017-10-27T23:32:11.750Z,1.50
2017-10-27T23:34:39.335Z,1.43
2017-10-27T23:37:06.900Z,1.86
2017-10-27T23:39:34.889Z,2.30
2017-10-27T23:42:03.474Z,1.97
2017-10-27T23:44:31.038Z,2.00
2017-10-27T23:46:58.685Z,2.30
2017-10-27T23:49:26.236Z,2.23
2017-10-27T23:51:53.824Z,1.83
2017-10-27T23:54:22.152Z,2.13
2017-10-27T23:56:49.815Z,1.83
2017-10-27T23:59:17.376Z,1.30
